sensor_id;sensor_type;location;lat;lon;timestamp;pressure;altitude;pressure_sealevel;temperature;humidity
4836;BME280;66719;51.226;6.902;2023-02-01T00:00:57;101257.53;;;5.74;100.00
4836;BME280;66719;51.226;6.902;2023-02-01T00:03:24;101260.09;;;5.72;100.00
4836;BME280;66719;51.226;6.902;2023-02-01T00:05:57;101261.88;;;5.75;100.00
4836;BME280;66719;51.226;6.902;2023-02-01T00:08:25;101267.06;;;5.75;100.00
4836;BME280;66719;51.226;6.902;2023-02-01T00:11:06;101263.59;;;5.74;100.00
4836;BME280;66719;51.226;6.902;2023-02-01T00:13:34;101269.66;;;5.75;100.00
4836;BME280;66719;51.226;6.902;2023-02-01T00:16:03;101265.28;;;5.72;100.00
4836;BME280;66719;51.226;6.902;2023-02-01T00:18:30;101267.00;;;5.70;100.00
4836;BME280;66719;51.226;6.902;2023-02-01T00:20:56;101262.69;;;5.72;100.00
4836;BME280;66719;51.226;6.902;2023-02-01T00:23:23;101260.13;;;5.74;100.00
4836;BME280;66719;51.226;6.902;2023-02-01T00:25:49;101254.03;;;5.73;100.00
4836;BME280;66719;51.226;6.902;2023-02-01T00:28:16;101247.97;;;5.71;100.00
4836;BME280;66719;51.226;6.902;2023-02-01T00:30:42;101247.94;;;5.70;100.00
4836;BME280;66719;51.226;6.902;2023-02-01T00:33:09;101243.63;;;5.68;100.00
4836;BME280;66719;51.226;6.902;2023-02-01T00:35:36;101237.53;;;5.66;100.00
4836;BME280;66719;51.226;6.902;2023-02-01T00:38:02;101250.53;;;5.70;100.00
4836;BME280;66719;51.226;6.902;2023-02-01T00:40:29;101238.41;;;5.68;100.00
4836;BME280;66719;51.226;6.902;2023-02-01T00:42:55;101251.47;;;5.75;100.00
4836;BME280;66719;51.226;6.902;2023-02-01T00:45:23;101241.91;;;5.71;100.00
4836;BME280;66719;51.226;6.902;2023-02-01T00:47:50;101242.75;;;5.71;100.00
4836;BME280;66719;51.226;6.902;2023-02-01T00:50:16;101222.84;;;5.73;100.00
4836;BME280;66719;51.226;6.902;2023-02-01T00:52:43;101228.03;;;5.70;100.00
4836;BME280;66719;51.226;6.902;2023-02-01T00:55:09;101216.78;;;5.70;100.00
4836;BME280;66719;51.226;6.902;2023-02-01T00:57:36;101196.00;;;5.71;100.00
4836;BME280;66719;51.226;6.902;2023-02-01T01:00:02;101192.53;;;5.72;100.00
4836;BME280;66719;51.226;6.902;2023-02-01T01:02:29;101200.38;;;5.74;100.00
4836;BME280;66719;51.226;6.902;2023-02-01T01:04:56;101200.38;;;5.74;100.00
4836;BME280;66719;51.226;6.902;2023-02-01T01:07:22;101201.19;;;5.71;100.00
4836;BME280;66719;51.226;6.902;2023-02-01T01:09:49;101207.25;;;5.67;100.00
4836;BME280;66719;51.226;6.902;2023-02-01T01:12:15;101213.31;;;5.67;100.00
4836;BME280;66719;51.226;6.902;2023-02-01T01:14:41;101221.09;;;5.69;100.00
4836;BME280;66719;51.226;6.902;2023-02-01T01:17:08;101227.16;;;5.70;100.00
4836;BME280;66719;51.226;6.902;2023-02-01T01:19:34;101226.31;;;5.69;100.00
4836;BME280;66719;51.226;6.902;2023-02-01T01:22:01;101230.63;;;5.70;100.00
4836;BME280;66719;51.226;6.902;2023-02-01T01:24:27;101229.78;;;5.73;100.00
4836;BME280;66719;51.226;6.902;2023-02-01T01:26:54;101224.63;;;5.74;100.00
4836;BME280;66719;51.226;6.902;2023-02-01T01:29:20;101228.13;;;5.78;100.00
4836;BME280;66719;51.226;6.902;2023-02-01T01:31:47;101228.13;;;5.78;100.00
4836;BME280;66719;51.226;6.902;2023-02-01T01:34:13;101222.91;;;5.76;100.00
4836;BME280;66719;51.226;6.902;2023-02-01T01:36:40;101225.50;;;5.76;100.00
4836;BME280;66719;51.226;6.902;2023-02-01T01:39:06;101235.88;;;5.75;100.00
4836;BME280;66719;51.226;6.902;2023-02-01T01:41:33;101227.25;;;5.76;100.00
4836;BME280;66719;51.226;6.902;2023-02-01T01:44:05;101228.97;;;5.74;100.00
4836;BME280;66719;51.226;6.902;2023-02-01T01:46:36;101230.63;;;5.70;100.00
4836;BME280;66719;51.226;6.902;2023-02-01T01:49:23;101241.03;;;5.73;100.00
4836;BME280;66719;51.226;6.902;2023-02-01T01:51:58;101241.91;;;5.71;100.00
4836;BME280;66719;51.226;6.902;2023-02-01T01:54:36;101226.28;;;5.67;100.00
4836;BME280;66719;51.226;6.902;2023-02-01T01:57:09;101233.22;;;5.65;100.00
4836;BME280;66719;51.226;6.902;2023-02-01T01:59:40;101211.50;;;5.62;100.00
4836;BME280;66719;51.226;6.902;2023-02-01T02:02:07;101212.34;;;5.56;100.00
4836;BME280;66719;51.226;6.902;2023-02-01T02:04:35;101209.69;;;5.55;100.00
4836;BME280;66719;51.226;6.902;2023-02-01T02:07:06;101215.75;;;5.55;100.00
4836;BME280;66719;51.226;6.902;2023-02-01T02:09:34;101211.47;;;5.57;100.00
4836;BME280;66719;51.226;6.902;2023-02-01T02:12:01;101201.03;;;5.53;100.00
4836;BME280;66719;51.226;6.902;2023-02-01T02:14:28;101188.84;;;5.47;100.00
4836;BME280;66719;51.226;6.902;2023-02-01T02:23:07;101198.34;;;5.44;100.00
4836;BME280;66719;51.226;6.902;2023-02-01T02:28:59;101191.34;;;5.36;100.00
4836;BME280;66719;51.226;6.902;2023-02-01T02:34:26;101205.09;;;5.29;100.00
4836;BME280;66719;51.226;6.902;2023-02-01T02:37:13;101193.00;;;5.30;100.00
4836;BME280;66719;51.226;6.902;2023-02-01T02:45:44;101179.13;;;5.25;100.00
4836;BME280;66719;51.226;6.902;2023-02-01T02:48:37;101184.31;;;5.23;100.00
4836;BME280;66719;51.226;6.902;2023-02-01T02:51:21;101180.00;;;5.28;100.00
4836;BME280;66719;51.226;6.902;2023-02-01T02:54:18;101173.94;;;5.25;100.00
4836;BME280;66719;51.226;6.902;2023-02-01T02:57:08;101169.59;;;5.25;100.00
4836;BME280;66719;51.226;6.902;2023-02-01T02:59:57;101179.97;;;5.22;100.00
4836;BME280;66719;51.226;6.902;2023-02-01T03:02:45;101180.78;;;5.18;100.00
4836;BME280;66719;51.226;6.902;2023-02-01T03:05:41;101188.56;;;5.18;100.00
4836;BME280;66719;51.226;6.902;2023-02-01T03:08:23;101184.22;;;5.16;100.00
4836;BME280;66719;51.226;6.902;2023-02-01T03:14:14;101174.69;;;5.13;100.00
4836;BME280;66719;51.226;6.902;2023-02-01T03:16:47;101178.16;;;5.17;100.00
4836;BME280;66719;51.226;6.902;2023-02-01T03:19:23;101165.25;;;5.23;100.00
4836;BME280;66719;51.226;6.902;2023-02-01T03:21:56;101160.94;;;5.23;100.00
4836;BME280;66719;51.226;6.902;2023-02-01T03:27:08;101161.84;;;5.27;100.00
4836;BME280;66719;51.226;6.902;2023-02-01T03:32:17;101147.19;;;5.32;100.00
4836;BME280;66719;51.226;6.902;2023-02-01T03:34:44;101141.97;;;5.30;100.00
4836;BME280;66719;51.226;6.902;2023-02-01T03:37:13;101166.16;;;5.28;100.00
4836;BME280;66719;51.226;6.902;2023-02-01T03:39:46;101148.84;;;5.27;100.00
4836;BME280;66719;51.226;6.902;2023-02-01T03:42:25;101142.81;;;5.29;100.00
4836;BME280;66719;51.226;6.902;2023-02-01T03:45:01;101148.91;;;5.31;100.00
4836;BME280;66719;51.226;6.902;2023-02-01T03:47:35;101143.72;;;5.31;100.00
4836;BME280;66719;51.226;6.902;2023-02-01T03:50:09;101132.47;;;5.31;100.00
4836;BME280;66719;51.226;6.902;2023-02-01T03:52:48;101148.91;;;5.33;100.00
4836;BME280;66719;51.226;6.902;2023-02-01T03:55:19;101136.81;;;5.32;100.00
4836;BME280;66719;51.226;6.902;2023-02-01T03:57:52;101130.75;;;5.33;100.00
4836;BME280;66719;51.226;6.902;2023-02-01T04:00:23;101145.47;;;5.35;100.00
4836;BME280;66719;51.226;6.902;2023-02-01T04:02:51;101149.00;;;5.41;100.00
4836;BME280;66719;51.226;6.902;2023-02-01T04:05:19;101142.09;;;5.44;100.00
4836;BME280;66719;51.226;6.902;2023-02-01T04:07:45;101134.28;;;5.41;100.00
4836;BME280;66719;51.226;6.902;2023-02-01T04:10:12;101138.69;;;5.50;100.00
4836;BME280;66719;51.226;6.902;2023-02-01T04:12:39;101118.84;;;5.56;100.00
4836;BME280;66719;51.226;6.902;2023-02-01T04:15:06;101128.38;;;5.59;100.00
4836;BME280;66719;51.226;6.902;2023-02-01T04:17:33;101121.53;;;5.65;100.00
4836;BME280;66719;51.226;6.902;2023-02-01T04:20:00;101123.25;;;5.68;100.00
4836;BME280;66719;51.226;6.902;2023-02-01T04:22:26;101100.75;;;5.70;100.00
4836;BME280;66719;51.226;6.902;2023-02-01T04:24:54;101085.97;;;5.63;100.00
4836;BME280;66719;51.226;6.902;2023-02-01T04:27:21;101085.06;;;5.55;100.00
4836;BME280;66719;51.226;6.902;2023-02-01T04:29:47;101091.09;;;5.49;100.00
4836;BME280;66719;51.226;6.902;2023-02-01T04:32:16;101096.22;;;5.46;100.00
4836;BME280;66719;51.226;6.902;2023-02-01T04:34:42;101089.31;;;5.47;100.00
4836;BME280;66719;51.226;6.902;2023-02-01T04:37:09;101090.16;;;5.41;100.00
4836;BME280;66719;51.226;6.902;2023-02-01T04:39:35;101095.38;;;5.46;100.00
4836;BME280;66719;51.226;6.902;2023-02-01T04:42:02;101089.28;;;5.42;100.00
4836;BME280;66719;51.226;6.902;2023-02-01T04:44:29;101105.72;;;5.39;100.00
4836;BME280;66719;51.226;6.902;2023-02-01T04:46:55;101113.47;;;5.38;100.00
4836;BME280;66719;51.226;6.902;2023-02-01T04:49:22;101110.06;;;5.44;100.00
4836;BME280;66719;51.226;6.902;2023-02-01T04:51:48;101116.06;;;5.38;100.00
4836;BME280;66719;51.226;6.902;2023-02-01T04:54:15;101120.38;;;5.33;100.00
4836;BME280;66719;51.226;6.902;2023-02-01T04:56:41;101114.31;;;5.32;100.00
4836;BME280;66719;51.226;6.902;2023-02-01T04:59:10;101115.19;;;5.36;100.00
4836;BME280;66719;51.226;6.902;2023-02-01T05:01:37;101124.78;;;5.45;100.00
4836;BME280;66719;51.226;6.902;2023-02-01T05:04:04;101125.66;;;5.45;100.00
4836;BME280;66719;51.226;6.902;2023-02-01T05:06:30;101122.19;;;5.45;100.00
4836;BME280;66719;51.226;6.902;2023-02-01T05:08:57;101126.53;;;5.46;100.00
4836;BME280;66719;51.226;6.902;2023-02-01T05:11:23;101123.94;;;5.46;100.00
4836;BME280;66719;51.226;6.902;2023-02-01T05:14:08;101116.19;;;5.52;100.00
4836;BME280;66719;51.226;6.902;2023-02-01T05:16:35;101116.19;;;5.49;100.00
4836;BME280;66719;51.226;6.902;2023-02-01T05:19:01;101121.38;;;5.49;100.00
4836;BME280;66719;51.226;6.902;2023-02-01T05:21:28;101124.84;;;5.48;100.00
4836;BME280;66719;51.226;6.902;2023-02-01T05:23:54;101120.44;;;5.42;100.00
4836;BME280;66719;51.226;6.902;2023-02-01T05:26:37;101125.63;;;5.41;100.00
4836;BME280;66719;51.226;6.902;2023-02-01T05:29:04;101131.69;;;5.41;100.00
4836;BME280;66719;51.226;6.902;2023-02-01T05:31:31;101141.22;;;5.44;100.00
4836;BME280;66719;51.226;6.902;2023-02-01T05:33:58;101133.44;;;5.47;100.00
4836;BME280;66719;51.226;6.902;2023-02-01T05:36:24;101139.50;;;5.47;100.00
4836;BME280;66719;51.226;6.902;2023-02-01T05:38:51;101150.81;;;5.48;100.00
4836;BME280;66719;51.226;6.902;2023-02-01T05:41:17;101130.03;;;5.51;100.00
4836;BME280;66719;51.226;6.902;2023-02-01T05:43:44;101114.47;;;5.49;100.00
4836;BME280;66719;51.226;6.902;2023-02-01T05:46:10;101123.06;;;5.45;100.00
4836;BME280;66719;51.226;6.902;2023-02-01T05:48:39;101121.31;;;5.41;100.00
4836;BME280;66719;51.226;6.902;2023-02-01T05:51:06;101135.09;;;5.35;100.00
4836;BME280;66719;51.226;6.902;2023-02-01T05:53:33;101136.88;;;5.41;100.00
4836;BME280;66719;51.226;6.902;2023-02-01T05:55:59;101138.56;;;5.34;100.00
4836;BME280;66719;51.226;6.902;2023-02-01T05:58:26;101138.53;;;5.33;100.00
4836;BME280;66719;51.226;6.902;2023-02-01T06:00:53;101136.88;;;5.39;100.00
4836;BME280;66719;51.226;6.902;2023-02-01T06:03:19;101134.28;;;5.39;100.00
4836;BME280;66719;51.226;6.902;2023-02-01T06:05:47;101123.91;;;5.43;100.00
4836;BME280;66719;51.226;6.902;2023-02-01T06:08:14;101129.97;;;5.40;100.00
4836;BME280;66719;51.226;6.902;2023-02-01T06:10:40;101118.66;;;5.38;100.00
4836;BME280;66719;51.226;6.902;2023-02-01T06:13:07;101107.41;;;5.34;100.00
4836;BME280;66719;51.226;6.902;2023-02-01T06:15:35;101112.53;;;5.30;100.00
4836;BME280;66719;51.226;6.902;2023-02-01T06:18:04;101116.03;;;5.30;100.00
4836;BME280;66719;51.226;6.902;2023-02-01T06:20:30;101129.84;;;5.29;100.00
4836;BME280;66719;51.226;6.902;2023-02-01T06:22:57;101135.06;;;5.32;100.00
4836;BME280;66719;51.226;6.902;2023-02-01T06:25:23;101137.66;;;5.31;100.00
4836;BME280;66719;51.226;6.902;2023-02-01T06:27:50;101142.00;;;5.32;100.00
4836;BME280;66719;51.226;6.902;2023-02-01T06:30:16;101136.81;;;5.32;100.00
4836;BME280;66719;51.226;6.902;2023-02-01T06:32:43;101144.59;;;5.35;100.00
4836;BME280;66719;51.226;6.902;2023-02-01T06:35:09;101150.75;;;5.42;100.00
4836;BME280;66719;51.226;6.902;2023-02-01T06:37:42;101135.16;;;5.43;100.00
4836;BME280;66719;51.226;6.902;2023-02-01T06:40:10;101150.75;;;5.43;100.00
4836;BME280;66719;51.226;6.902;2023-02-01T06:42:37;101146.41;;;5.42;100.00
4836;BME280;66719;51.226;6.902;2023-02-01T06:45:03;101138.63;;;5.41;100.00
4836;BME280;66719;51.226;6.902;2023-02-01T06:47:30;101146.34;;;5.37;100.00
4836;BME280;66719;51.226;6.902;2023-02-01T06:49:56;101137.75;;;5.42;100.00
4836;BME280;66719;51.226;6.902;2023-02-01T06:52:23;101136.00;;;5.41;100.00
4836;BME280;66719;51.226;6.902;2023-02-01T06:54:49;101132.50;;;5.38;100.00
4836;BME280;66719;51.226;6.902;2023-02-01T06:57:16;101136.91;;;5.46;100.00
4836;BME280;66719;51.226;6.902;2023-02-01T06:59:42;101130.84;;;5.44;100.00
4836;BME280;66719;51.226;6.902;2023-02-01T07:02:10;101136.03;;;5.45;100.00
4836;BME280;66719;51.226;6.902;2023-02-01T07:04:37;101150.75;;;5.45;100.00
4836;BME280;66719;51.226;6.902;2023-02-01T07:07:04;101134.31;;;5.46;100.00
4836;BME280;66719;51.226;6.902;2023-02-01T07:09:30;101144.69;;;5.46;100.00
4836;BME280;66719;51.226;6.902;2023-02-01T07:11:56;101151.63;;;5.45;100.00
4836;BME280;66719;51.226;6.902;2023-02-01T07:14:23;101146.44;;;5.45;100.00
4836;BME280;66719;51.226;6.902;2023-02-01T07:16:49;101157.69;;;5.46;100.00
4836;BME280;66719;51.226;6.902;2023-02-01T07:19:17;101150.81;;;5.48;100.00
4836;BME280;66719;51.226;6.902;2023-02-01T07:21:43;101159.47;;;5.50;100.00
4836;BME280;66719;51.226;6.902;2023-02-01T07:24:10;101158.59;;;5.49;100.00
4836;BME280;66719;51.226;6.902;2023-02-01T07:26:36;101150.81;;;5.51;100.00
4836;BME280;66719;51.226;6.902;2023-02-01T07:29:03;101149.94;;;5.50;100.00
4836;BME280;66719;51.226;6.902;2023-02-01T07:31:29;101158.59;;;5.49;100.00
4836;BME280;66719;51.226;6.902;2023-02-01T07:33:55;101164.66;;;5.51;100.00
4836;BME280;66719;51.226;6.902;2023-02-01T07:36:23;101157.75;;;5.53;100.00
4836;BME280;66719;51.226;6.902;2023-02-01T07:38:50;101156.03;;;5.54;100.00
4836;BME280;66719;51.226;6.902;2023-02-01T07:41:21;101154.28;;;5.53;100.00
4836;BME280;66719;51.226;6.902;2023-02-01T07:43:48;101164.69;;;5.56;100.00
4836;BME280;66719;51.226;6.902;2023-02-01T07:46:17;101169.88;;;5.56;100.00
4836;BME280;66719;51.226;6.902;2023-02-01T07:48:43;101162.16;;;5.59;100.00
4836;BME280;66719;51.226;6.902;2023-02-01T07:51:15;101173.41;;;5.59;100.00
4836;BME280;66719;51.226;6.902;2023-02-01T07:53:43;101171.69;;;5.63;100.00
4836;BME280;66719;51.226;6.902;2023-02-01T07:56:18;101161.34;;;5.66;100.00
4836;BME280;66719;51.226;6.902;2023-02-01T07:58:53;101164.81;;;5.65;100.00
4836;BME280;66719;51.226;6.902;2023-02-01T08:01:23;101166.53;;;5.66;100.00
4836;BME280;66719;51.226;6.902;2023-02-01T08:04:03;101155.25;;;5.64;100.00
4836;BME280;66719;51.226;6.902;2023-02-01T08:06:33;101156.09;;;5.63;100.00
4836;BME280;66719;51.226;6.902;2023-02-01T08:09:01;101165.69;;;5.68;100.00
4836;BME280;66719;51.226;6.902;2023-02-01T08:11:28;101158.81;;;5.75;100.00
4836;BME280;66719;51.226;6.902;2023-02-01T08:13:55;101176.97;;;5.72;100.00
4836;BME280;66719;51.226;6.902;2023-02-01T08:16:22;101176.09;;;5.72;100.00
4836;BME280;66719;51.226;6.902;2023-02-01T08:18:50;101165.75;;;5.75;100.00
4836;BME280;66719;51.226;6.902;2023-02-01T08:21:19;101169.16;;;5.72;100.00
4836;BME280;66719;51.226;6.902;2023-02-01T08:23:46;101180.41;;;5.70;100.00
4836;BME280;66719;51.226;6.902;2023-02-01T08:26:21;101182.13;;;5.67;100.00
4836;BME280;66719;51.226;6.902;2023-02-01T08:28:55;101178.69;;;5.70;100.00
4836;BME280;66719;51.226;6.902;2023-02-01T08:31:23;101187.34;;;5.69;100.00
4836;BME280;66719;51.226;6.902;2023-02-01T08:33:53;101189.94;;;5.69;100.00
4836;BME280;66719;51.226;6.902;2023-02-01T08:36:22;101200.34;;;5.72;100.00
4836;BME280;66719;51.226;6.902;2023-02-01T08:38:48;101202.94;;;5.72;100.00
4836;BME280;66719;51.226;6.902;2023-02-01T08:41:18;101201.25;;;5.74;100.00
4836;BME280;66719;51.226;6.902;2023-02-01T08:43:45;101203.88;;;5.79;100.00
4836;BME280;66719;51.226;6.902;2023-02-01T08:46:12;101212.53;;;5.76;100.00
4836;BME280;66719;51.226;6.902;2023-02-01T08:48:39;101214.25;;;5.76;100.00
4836;BME280;66719;51.226;6.902;2023-02-01T08:51:08;101221.19;;;5.77;100.00
4836;BME280;66719;51.226;6.902;2023-02-01T08:53:36;101222.06;;;5.77;100.00
4836;BME280;66719;51.226;6.902;2023-02-01T08:56:03;101219.47;;;5.79;100.00
4836;BME280;66719;51.226;6.902;2023-02-01T08:58:29;101218.59;;;5.78;100.00
4836;BME280;66719;51.226;6.902;2023-02-01T09:00:56;101241.16;;;5.82;100.00
4836;BME280;66719;51.226;6.902;2023-02-01T09:03:22;101213.44;;;5.83;100.00
4836;BME280;66719;51.226;6.902;2023-02-01T09:05:49;101205.66;;;5.83;100.00
4836;BME280;66719;51.226;6.902;2023-02-01T09:08:17;101200.47;;;5.83;100.00
4836;BME280;66719;51.226;6.902;2023-02-01T09:10:46;101197.88;;;5.83;100.00
4836;BME280;66719;51.226;6.902;2023-02-01T09:13:12;101204.81;;;5.85;100.00
4836;BME280;66719;51.226;6.902;2023-02-01T09:15:39;101197.00;;;5.87;100.00
4836;BME280;66719;51.226;6.902;2023-02-01T09:18:06;101203.94;;;5.86;100.00
4836;BME280;66719;51.226;6.902;2023-02-01T09:20:32;101222.16;;;5.89;100.00
4836;BME280;66719;51.226;6.902;2023-02-01T09:22:59;101193.56;;;5.88;100.00
4836;BME280;66719;51.226;6.902;2023-02-01T09:25:26;101202.22;;;5.88;100.00
4836;BME280;66719;51.226;6.902;2023-02-01T09:27:52;101197.94;;;5.90;100.00
4836;BME280;66719;51.226;6.902;2023-02-01T09:30:19;101195.28;;;5.89;100.00
4836;BME280;66719;51.226;6.902;2023-02-01T09:32:46;101203.09;;;5.89;100.00
4836;BME280;66719;51.226;6.902;2023-02-01T09:35:12;101194.50;;;5.91;100.00
4836;BME280;66719;51.226;6.902;2023-02-01T09:37:39;101196.25;;;5.92;100.00
4836;BME280;66719;51.226;6.902;2023-02-01T09:40:06;101193.66;;;5.92;100.00
4836;BME280;66719;51.226;6.902;2023-02-01T09:43:06;101179.81;;;5.97;100.00
4836;BME280;66719;51.226;6.902;2023-02-01T09:45:36;101184.13;;;5.98;100.00
4836;BME280;66719;51.226;6.902;2023-02-01T09:48:17;101188.50;;;6.00;100.00
4836;BME280;66719;51.226;6.902;2023-02-01T09:50:54;101179.81;;;5.98;100.00
4836;BME280;66719;51.226;6.902;2023-02-01T09:53:28;101184.13;;;5.98;100.00
4836;BME280;66719;51.226;6.902;2023-02-01T09:56:26;101186.72;;;5.98;100.00
4836;BME280;66719;51.226;6.902;2023-02-01T10:02:02;101187.59;;;5.93;100.00
4836;BME280;66719;51.226;6.902;2023-02-01T10:04:30;101191.03;;;5.92;100.00
4836;BME280;66719;51.226;6.902;2023-02-01T10:07:12;101178.91;;;5.93;100.00
4836;BME280;66719;51.226;6.902;2023-02-01T10:10:03;101169.38;;;5.92;100.00
4836;BME280;66719;51.226;6.902;2023-02-01T10:13:01;101168.44;;;5.90;100.00
4836;BME280;66719;51.226;6.902;2023-02-01T10:26:45;101178.81;;;5.82;100.00
4836;BME280;66719;51.226;6.902;2023-02-01T10:29:18;101179.69;;;5.83;100.00
4836;BME280;66719;51.226;6.902;2023-02-01T10:31:45;101172.75;;;5.85;100.00
4836;BME280;66719;51.226;6.902;2023-02-01T10:34:21;101169.28;;;5.84;100.00
4836;BME280;66719;51.226;6.902;2023-02-01T10:36:55;101163.22;;;5.84;100.00
4836;BME280;66719;51.226;6.902;2023-02-01T10:39:23;101171.88;;;5.84;100.00
4836;BME280;66719;51.226;6.902;2023-02-01T10:41:50;101166.69;;;5.86;100.00
4836;BME280;66719;51.226;6.902;2023-02-01T10:44:20;101176.31;;;5.91;100.00
4836;BME280;66719;51.226;6.902;2023-02-01T10:46:49;101184.13;;;5.96;100.00
4836;BME280;66719;51.226;6.902;2023-02-01T10:52:13;101172.00;;;5.97;100.00
4836;BME280;66719;51.226;6.902;2023-02-01T10:54:41;101168.53;;;5.99;100.00
4836;BME280;66719;51.226;6.902;2023-02-01T10:57:10;101166.88;;;6.03;100.00
4836;BME280;66719;51.226;6.902;2023-02-01T10:59:37;101175.59;;;6.11;100.00
4836;BME280;66719;51.226;6.902;2023-02-01T11:02:26;101173.06;;;6.23;100.00
4836;BME280;66719;51.226;6.902;2023-02-01T11:05:07;101164.50;;;6.38;100.00
4836;BME280;66719;51.226;6.902;2023-02-01T11:07:36;101149.75;;;6.41;100.00
4836;BME280;66719;51.226;6.902;2023-02-01T11:10:04;101145.41;;;6.42;100.00
4836;BME280;66719;51.226;6.902;2023-02-01T11:12:36;101148.03;;;6.40;100.00
4836;BME280;66719;51.226;6.902;2023-02-01T11:15:14;101148.88;;;6.35;100.00
4836;BME280;66719;51.226;6.902;2023-02-01T11:17:46;101156.63;;;6.30;100.00
4836;BME280;66719;51.226;6.902;2023-02-01T11:20:18;101147.97;;;6.27;100.00
4836;BME280;66719;51.226;6.902;2023-02-01T11:22:53;101160.09;;;6.26;100.00
4836;BME280;66719;51.226;6.902;2023-02-01T11:25:20;101166.16;;;6.31;100.00
4836;BME280;66719;51.226;6.902;2023-02-01T11:27:54;101148.88;;;6.42;100.00
4836;BME280;66719;51.226;6.902;2023-02-01T11:30:38;101146.38;;;6.53;100.00
4836;BME280;66719;51.226;6.902;2023-02-01T11:33:16;101136.84;;;6.55;100.00
4836;BME280;66719;51.226;6.902;2023-02-01T11:35:44;101132.50;;;6.57;100.00
4836;BME280;66719;51.226;6.902;2023-02-01T11:38:19;101129.91;;;6.57;100.00
4836;BME280;66719;51.226;6.902;2023-02-01T11:40:46;101122.09;;;6.54;100.00
4836;BME280;66719;51.226;6.902;2023-02-01T11:43:26;101123.84;;;6.57;100.00
4836;BME280;66719;51.226;6.902;2023-02-01T11:45:56;101113.47;;;6.61;100.00
4836;BME280;66719;51.226;6.902;2023-02-01T11:48:25;101123.00;;;6.64;100.00
4836;BME280;66719;51.226;6.902;2023-02-01T11:53:29;101098.69;;;6.60;100.00
4836;BME280;66719;51.226;6.902;2023-02-01T12:01:30;101093.50;;;6.63;100.00
4836;BME280;66719;51.226;6.902;2023-02-01T12:04:18;101091.78;;;6.68;100.00
4836;BME280;66719;51.226;6.902;2023-02-01T12:06:57;101100.47;;;6.73;100.00
4836;BME280;66719;51.226;6.902;2023-02-01T12:09:34;101098.75;;;6.74;100.00
4836;BME280;66719;51.226;6.902;2023-02-01T12:22:55;101081.44;;;6.79;100.00
4836;BME280;66719;51.226;6.902;2023-02-01T12:25:34;101077.06;;;6.76;100.00
4836;BME280;66719;51.226;6.902;2023-02-01T12:36:22;101075.31;;;6.77;100.00
4836;BME280;66719;51.226;6.902;2023-02-01T12:39:10;101066.69;;;6.79;100.00
4836;BME280;66719;51.226;6.902;2023-02-01T12:44:53;101061.47;;;6.81;100.00
4836;BME280;66719;51.226;6.902;2023-02-01T12:47:30;101056.28;;;6.81;100.00
4836;BME280;66719;51.226;6.902;2023-02-01T12:50:12;101043.25;;;6.78;100.00
4836;BME280;66719;51.226;6.902;2023-02-01T12:52:51;101054.50;;;6.77;100.00
4836;BME280;66719;51.226;6.902;2023-02-01T12:55:34;101038.91;;;6.77;100.00
4836;BME280;66719;51.226;6.902;2023-02-01T12:58:12;101027.66;;;6.78;100.00
4836;BME280;66719;51.226;6.902;2023-02-01T13:00:51;101042.38;;;6.77;100.00
4836;BME280;66719;51.226;6.902;2023-02-01T13:03:33;101033.72;;;6.80;100.00
4836;BME280;66719;51.226;6.902;2023-02-01T13:06:09;101025.03;;;6.81;100.00
4836;BME280;66719;51.226;6.902;2023-02-01T13:09:18;101031.97;;;6.77;100.00
4836;BME280;66719;51.226;6.902;2023-02-01T13:11:48;101024.16;;;6.77;100.00
4836;BME280;66719;51.226;6.902;2023-02-01T13:16:52;101022.44;;;6.84;100.00
4836;BME280;66719;51.226;6.902;2023-02-01T13:19:28;101025.06;;;6.89;100.00
4836;BME280;66719;51.226;6.902;2023-02-01T13:22:12;101013.78;;;6.96;100.00
4836;BME280;66719;51.226;6.902;2023-02-01T13:24:51;101011.16;;;6.94;100.00
4836;BME280;66719;51.226;6.902;2023-02-01T13:27:19;101017.25;;;7.01;100.00
4836;BME280;66719;51.226;6.902;2023-02-01T13:29:53;101043.28;;;6.96;100.00
4836;BME280;66719;51.226;6.902;2023-02-01T13:36:14;101017.25;;;6.93;100.00
4836;BME280;66719;51.226;6.902;2023-02-01T13:42:00;101009.47;;;6.96;100.00
4836;BME280;66719;51.226;6.902;2023-02-01T13:44:46;101025.06;;;7.02;100.00
4836;BME280;66719;51.226;6.902;2023-02-01T13:47:22;101021.59;;;7.00;100.00
4836;BME280;66719;51.226;6.902;2023-02-01T13:49:51;101018.13;;;6.95;100.00
4836;BME280;66719;51.226;6.902;2023-02-01T13:57:50;101026.81;;;7.00;100.00
4836;BME280;66719;51.226;6.902;2023-02-01T14:13:31;101036.38;;;7.14;100.00
4836;BME280;66719;51.226;6.902;2023-02-01T14:21:32;101027.69;;;7.22;100.00
4836;BME280;66719;51.226;6.902;2023-02-01T14:26:49;101052.84;;;7.28;100.00
4836;BME280;66719;51.226;6.902;2023-02-01T14:34:40;101030.25;;;7.37;100.00
4836;BME280;66719;51.226;6.902;2023-02-01T14:47:44;101038.97;;;7.35;100.00
4836;BME280;66719;51.226;6.902;2023-02-01T14:55:42;101053.72;;;7.44;100.00
4836;BME280;66719;51.226;6.902;2023-02-01T15:01:34;101054.59;;;7.43;100.00
4836;BME280;66719;51.226;6.902;2023-02-01T15:06:41;101046.75;;;7.46;100.00
4836;BME280;66719;51.226;6.902;2023-02-01T15:09:20;101049.38;;;7.46;100.00
4836;BME280;66719;51.226;6.902;2023-02-01T15:14:37;101038.97;;;7.40;100.00
4836;BME280;66719;51.226;6.902;2023-02-01T15:17:27;101044.19;;;7.47;100.00
4836;BME280;66719;51.226;6.902;2023-02-01T15:20:12;101045.03;;;7.46;100.00
4836;BME280;66719;51.226;6.902;2023-02-01T15:22:39;101077.19;;;7.48;100.00
4836;BME280;66719;51.226;6.902;2023-02-01T15:25:18;101080.63;;;7.53;100.00
4836;BME280;66719;51.226;6.902;2023-02-01T15:27:47;101052.84;;;7.54;100.00
4836;BME280;66719;51.226;6.902;2023-02-01T15:30:20;101061.53;;;7.57;100.00
4836;BME280;66719;51.226;6.902;2023-02-01T15:32:47;101057.19;;;7.52;100.00
4836;BME280;66719;51.226;6.902;2023-02-01T15:35:40;101058.03;;;7.54;100.00
4836;BME280;66719;51.226;6.902;2023-02-01T15:43:32;101057.19;;;7.53;100.00
4836;BME280;66719;51.226;6.902;2023-02-01T15:46:01;101065.03;;;7.47;100.00